CFG6KM LEPA-LPPS
Flight info
| Callsign | CFG6KM |
|---|---|
| Flight time | N/A |
| Altitude | 33000 |
| Route | LEPA/24R EPAMA N733 VLC M985 SERRA/N0449F350 M985 YES N747 MINTA DCT NARTA DCT RAKUN |
| Aircraft | A321/M-SDE3FGHIRWY/LB1 |
Departure
| Time | N/A |
|---|---|
| Airport | Palma de Mallorca Airport (LEPA) |
Arrival
| Time | 2026-04-19 18:55 |
|---|---|
| Airport | Porto Santo Airport (LPPS) |
| Time | Latitude | Longitude | Altitude | Speed | Heading |
|---|---|---|---|---|---|
| 2026-04-19 18:37 | 32.68952 | -16.69366 | 2978 ft | 222 kts | 193° |
| 2026-04-19 18:37 | 32.67493 | -16.69534 | 2977 ft | 206 kts | 160° |
| 2026-04-19 18:38 | 32.66258 | -16.68754 | 2983 ft | 202 kts | 140° |
| 2026-04-19 18:38 | 32.65179 | -16.67685 | 2980 ft | 202 kts | 137° |
| 2026-04-19 18:38 | 32.64124 | -16.66585 | 2981 ft | 202 kts | 136° |
| 2026-04-19 18:38 | 32.63076 | -16.65483 | 2982 ft | 201 kts | 136° |
| 2026-04-19 18:39 | 32.62108 | -16.64304 | 2980 ft | 200 kts | 120° |
| 2026-04-19 18:39 | 32.61805 | -16.62708 | 2976 ft | 207 kts | 88° |
| 2026-04-19 18:39 | 32.62378 | -16.61102 | 2981 ft | 221 kts | 61° |
| 2026-04-19 18:39 | 32.63351 | -16.59661 | 2980 ft | 226 kts | 57° |
| 2026-04-19 18:40 | 32.64378 | -16.58242 | 2978 ft | 227 kts | 57° |
| 2026-04-19 18:40 | 32.65426 | -16.56823 | 2996 ft | 229 kts | 56° |
| 2026-04-19 18:40 | 32.66468 | -16.55406 | 2994 ft | 228 kts | 56° |
| 2026-04-19 18:40 | 32.67502 | -16.53982 | 2993 ft | 228 kts | 57° |
| 2026-04-19 18:41 | 32.68543 | -16.52555 | 2989 ft | 230 kts | 57° |
| 2026-04-19 18:41 | 32.69598 | -16.51129 | 2990 ft | 230 kts | 56° |
| 2026-04-19 18:41 | 32.70657 | -16.49697 | 2987 ft | 231 kts | 57° |
| 2026-04-19 18:41 | 32.71711 | -16.48268 | 2984 ft | 230 kts | 56° |
| 2026-04-19 18:42 | 32.72766 | -16.46829 | 2983 ft | 231 kts | 57° |
| 2026-04-19 18:42 | 32.73820 | -16.45399 | 2984 ft | 230 kts | 57° |
| 2026-04-19 18:42 | 32.74874 | -16.43977 | 2978 ft | 229 kts | 57° |
| 2026-04-19 18:42 | 32.76061 | -16.42623 | 2983 ft | 253 kts | 47° |
| 2026-04-19 18:43 | 32.77464 | -16.41254 | 2975 ft | 265 kts | 45° |
| 2026-04-19 18:43 | 32.78917 | -16.39887 | 2975 ft | 267 kts | 45° |
| 2026-04-19 18:43 | 32.80381 | -16.38528 | 2975 ft | 268 kts | 44° |
| 2026-04-19 18:43 | 32.81844 | -16.37168 | 2975 ft | 268 kts | 45° |
| 2026-04-19 18:44 | 32.83314 | -16.35801 | 2977 ft | 268 kts | 45° |
| 2026-04-19 18:44 | 32.84782 | -16.34432 | 2977 ft | 268 kts | 44° |
| 2026-04-19 18:44 | 32.86246 | -16.33058 | 2979 ft | 268 kts | 45° |
| 2026-04-19 18:44 | 32.87752 | -16.31740 | 2975 ft | 271 kts | 40° |
| 2026-04-19 18:45 | 32.89337 | -16.30516 | 2975 ft | 271 kts | 41° |
| 2026-04-19 18:45 | 32.90528 | -16.28943 | 2973 ft | 243 kts | 73° |
| 2026-04-19 18:45 | 32.90654 | -16.27135 | 2973 ft | 211 kts | 112° |
| 2026-04-19 18:45 | 32.89768 | -16.25864 | 2989 ft | 201 kts | 152° |
| 2026-04-19 18:46 | 32.88451 | -16.25334 | 2979 ft | 196 kts | 160° |
| 2026-04-19 18:46 | 32.87214 | -16.24878 | 2974 ft | 185 kts | 160° |
| 2026-04-19 18:46 | 32.85973 | -16.24541 | 2980 ft | 182 kts | 168° |
| 2026-04-19 18:46 | 32.84711 | -16.24437 | 2995 ft | 181 kts | 173° |
| 2026-04-19 18:47 | 32.83449 | -16.24403 | 2984 ft | 181 kts | 173° |
| 2026-04-19 18:47 | 32.82190 | -16.24382 | 2980 ft | 181 kts | 173° |
| 2026-04-19 18:47 | 32.80935 | -16.24356 | 2980 ft | 180 kts | 173° |
| 2026-04-19 18:47 | 32.79676 | -16.24328 | 2978 ft | 181 kts | 173° |
| 2026-04-19 18:48 | 32.78414 | -16.24324 | 2975 ft | 183 kts | 177° |
| 2026-04-19 18:48 | 32.77149 | -16.24626 | 2974 ft | 190 kts | 192° |
| 2026-04-19 18:48 | 32.75974 | -16.25410 | 2973 ft | 199 kts | 210° |
| 2026-04-19 18:48 | 32.75047 | -16.26677 | 2969 ft | 210 kts | 231° |
| 2026-04-19 18:49 | 32.74588 | -16.28371 | 2969 ft | 224 kts | 259° |
| 2026-04-19 18:49 | 32.74883 | -16.30212 | 2968 ft | 234 kts | 295° |
| 2026-04-19 18:49 | 32.75977 | -16.31614 | 2973 ft | 233 kts | 332° |
| 2026-04-19 18:49 | 32.77491 | -16.32198 | 2983 ft | 229 kts | 354° |
| 2026-04-19 18:50 | 32.79050 | -16.32549 | 2973 ft | 227 kts | 357° |
| 2026-04-19 18:50 | 32.80615 | -16.32805 | 2975 ft | 227 kts | 359° |
| 2026-04-19 18:50 | 32.82180 | -16.33025 | 2977 ft | 226 kts | 359° |
| 2026-04-19 18:50 | 32.83737 | -16.33240 | 2978 ft | 225 kts | 359° |
| 2026-04-19 18:51 | 32.85297 | -16.33458 | 2978 ft | 225 kts | 359° |
| 2026-04-19 18:51 | 32.86852 | -16.33677 | 2978 ft | 225 kts | 359° |
| 2026-04-19 18:51 | 32.88407 | -16.33900 | 2984 ft | 225 kts | 359° |
| 2026-04-19 18:52 | 32.91530 | -16.34355 | 2982 ft | 226 kts | 358° |
| 2026-04-19 18:52 | 32.93089 | -16.34447 | 2978 ft | 224 kts | 4° |
| 2026-04-19 18:52 | 32.94639 | -16.34519 | 2878 ft | 223 kts | 3° |
| 2026-04-19 18:52 | 32.96141 | -16.34597 | 2707 ft | 207 kts | 4° |
| 2026-04-19 18:53 | 32.97549 | -16.34719 | 2229 ft | 202 kts | 2° |
| 2026-04-19 18:53 | 32.98920 | -16.34853 | 1886 ft | 194 kts | 4° |
| 2026-04-19 18:53 | 33.00255 | -16.34945 | 1497 ft | 190 kts | 7° |
| 2026-04-19 18:53 | 33.01547 | -16.34954 | 1178 ft | 180 kts | 10° |
| 2026-04-19 18:54 | 33.02771 | -16.34971 | 840 ft | 171 kts | 8° |
| 2026-04-19 18:54 | 33.03889 | -16.34954 | 614 ft | 151 kts | 10° |
| 2026-04-19 18:54 | 33.04894 | -16.34940 | 465 ft | 140 kts | 10° |
| 2026-04-19 18:54 | 33.05844 | -16.34957 | 308 ft | 134 kts | 9° |
| 2026-04-19 18:55 | 33.06743 | -16.34964 | 278 ft | 117 kts | 357° |
| 2026-04-19 18:55 | 33.07350 | -16.34997 | 303 ft | 61 kts | 358° |
| 2026-04-19 18:55 | 33.07637 | -16.35004 | 311 ft | 28 kts | 359° |
| 2026-04-19 18:55 | 33.07818 | -16.35014 | 316 ft | 24 kts | 358° |
| 2026-04-19 18:56 | 33.07971 | -16.35018 | 321 ft | 19 kts | 358° |
| 2026-04-19 18:56 | 33.08067 | -16.34968 | 324 ft | 13 kts | 42° |
| 2026-04-19 18:56 | 33.08133 | -16.34919 | 328 ft | 9 kts | 9° |
| 2026-04-19 18:56 | 33.08177 | -16.34941 | 328 ft | 5 kts | 303° |
| 2026-04-19 18:57 | 33.08180 | -16.34981 | 330 ft | 5 kts | 265° |
| 2026-04-19 18:57 | 33.08159 | -16.35018 | 328 ft | 6 kts | 216° |
| 2026-04-19 18:57 | 33.08083 | -16.35025 | 324 ft | 18 kts | 179° |
| 2026-04-19 18:57 | 33.07912 | -16.35018 | 318 ft | 31 kts | 177° |
| 2026-04-19 18:58 | 33.07651 | -16.35004 | 312 ft | 43 kts | 177° |
| 2026-04-19 18:58 | 33.07352 | -16.34990 | 303 ft | 36 kts | 178° |
| 2026-04-19 18:58 | 33.07092 | -16.34978 | 292 ft | 37 kts | 177° |
| 2026-04-19 18:58 | 33.06963 | -16.34930 | 288 ft | 16 kts | 115° |
| 2026-04-19 18:59 | 33.06966 | -16.34801 | 287 ft | 15 kts | 84° |
| 2026-04-19 18:59 | 33.06973 | -16.34708 | 287 ft | 10 kts | 87° |
| 2026-04-19 18:59 | 33.06977 | -16.34633 | 287 ft | 5 kts | 76° |
| 2026-04-19 18:59 | 33.06989 | -16.34630 | 290 ft | 0 kts | 352° |
| 2026-04-19 19:00 | 33.06991 | -16.34632 | 290 ft | 2 kts | 345° |
| 2026-04-19 19:00 | 33.06994 | -16.34657 | 287 ft | 5 kts | 266° |
| 2026-04-19 19:00 | 33.06993 | -16.34684 | 290 ft | 0 kts | 267° |
| 2026-04-19 19:02 | 33.06993 | -16.34683 | 290 ft | 0 kts | 267° |
| 2026-04-19 19:02 | 33.06976 | -16.34619 | 287 ft | 0 kts | 59° |